createdAt,value
2018-03-22T00:01:10.233Z,159706.14
2018-03-22T00:03:37.845Z,159684.00
2018-03-22T00:06:05.661Z,159660.58
2018-03-22T00:08:33.436Z,159669.70
2018-03-22T00:11:01.097Z,159717.86
2018-03-22T00:13:28.889Z,159706.78
2018-03-22T00:15:56.563Z,159723.69
2018-03-22T00:18:24.150Z,159699.61
2018-03-22T00:20:52.129Z,159755.59
2018-03-22T00:23:20.004Z,159720.45
2018-03-22T00:25:47.775Z,159744.53
2018-03-22T00:28:15.554Z,159757.55
2018-03-22T00:30:43.331Z,159713.92
2018-03-22T00:33:11.001Z,159675.53
2018-03-22T00:35:38.891Z,159650.81
2018-03-22T00:38:06.553Z,159658.64
2018-03-22T00:40:34.304Z,159728.28
2018-03-22T00:43:02.120Z,159668.41
2018-03-22T00:45:29.712Z,159658.64
2018-03-22T00:47:57.359Z,159732.17
2018-03-22T00:50:25.030Z,159710.03
2018-03-22T00:52:52.721Z,159628.03
2018-03-22T00:55:20.436Z,159665.11
2018-03-22T00:57:48.277Z,159669.70
2018-03-22T01:00:16.056Z,159600.06
2018-03-22T01:02:43.731Z,159700.91
2018-03-22T01:05:11.514Z,159644.33
2018-03-22T01:07:39.181Z,159611.13
2018-03-22T01:10:06.789Z,159633.27
2018-03-22T01:12:34.634Z,159602.66
2018-03-22T01:15:02.219Z,159598.13
2018-03-22T01:17:29.987Z,159657.34
2018-03-22T01:19:57.650Z,159606.55
2018-03-22T01:22:25.439Z,159624.78
2018-03-22T01:24:53.113Z,159589.66
2018-03-22T01:27:20.765Z,159636.50
2018-03-22T01:29:48.560Z,159664.47
2018-03-22T01:32:16.312Z,159652.75
2018-03-22T01:34:44.092Z,159674.23
2018-03-22T01:37:11.901Z,159634.56
2018-03-22T01:39:39.681Z,159710.69
2018-03-22T01:42:07.328Z,159651.45
2018-03-22T01:44:34.925Z,159637.80
2018-03-22T01:47:02.710Z,159645.63
2018-03-22T01:49:30.369Z,159689.19
2018-03-22T01:51:58.051Z,159669.70
2018-03-22T01:54:25.728Z,159722.39
2018-03-22T01:56:53.512Z,159765.37
2018-03-22T01:59:21.087Z,159725.64
2018-03-22T02:01:48.871Z,159748.42
2018-03-22T02:04:16.496Z,159721.09
2018-03-22T02:06:44.316Z,159643.69
2018-03-22T02:09:12.095Z,159680.77
2018-03-22T02:11:39.672Z,159637.16
2018-03-22T02:14:07.352Z,159635.20
2018-03-22T02:16:35.002Z,159602.02
2018-03-22T02:19:02.694Z,159686.59
2018-03-22T02:21:30.365Z,159737.34
2018-03-22T02:23:57.944Z,159762.73
2018-03-22T02:26:25.529Z,159718.50
2018-03-22T02:28:53.254Z,159684.66
2018-03-22T02:31:20.956Z,159685.30
2018-03-22T02:33:48.752Z,159644.97
2018-03-22T02:36:16.413Z,159642.98
2018-03-22T02:38:44.141Z,159639.75
2018-03-22T02:41:11.726Z,159657.98
2018-03-22T02:43:39.313Z,159684.66
2018-03-22T02:46:07.124Z,159693.13
2018-03-22T02:48:34.710Z,159631.97
2018-03-22T02:51:02.312Z,159674.89
2018-03-22T02:53:30.047Z,159665.77
2018-03-22T02:55:57.786Z,159640.39
2018-03-22T02:58:25.602Z,159723.69
2018-03-22T03:00:53.481Z,159708.08
2018-03-22T03:03:21.062Z,159653.41
2018-03-22T03:05:48.724Z,159665.11
2018-03-22T03:08:16.614Z,159675.53
2018-03-22T03:10:44.280Z,159707.44
2018-03-22T03:13:11.845Z,159640.39
2018-03-22T03:15:39.526Z,159639.09
2018-03-22T03:18:07.161Z,159676.19
2018-03-22T03:20:34.809Z,159677.47
2018-03-22T03:23:02.515Z,159662.52
2018-03-22T03:25:30.338Z,159667.75
2018-03-22T03:27:58.122Z,159656.05
2018-03-22T03:30:25.960Z,159675.53
2018-03-22T03:32:53.670Z,159637.16
2018-03-22T03:35:21.340Z,159636.50
2018-03-22T03:37:49.129Z,159648.22
2018-03-22T03:40:16.905Z,159698.97
2018-03-22T03:42:44.576Z,159663.81
2018-03-22T03:45:12.324Z,159639.75
2018-03-22T03:47:40.133Z,159661.88
2018-03-22T03:50:07.909Z,159653.41
2018-03-22T03:52:35.488Z,159672.94
2018-03-22T03:55:03.133Z,159689.19
2018-03-22T03:57:30.944Z,159639.09
2018-03-22T03:59:58.732Z,159659.28
2018-03-22T04:02:26.401Z,159685.30
2018-03-22T04:04:54.169Z,159652.11
2018-03-22T04:07:21.843Z,159689.84
2018-03-22T04:09:49.454Z,159689.84
2018-03-22T04:12:17.185Z,159671.00
2018-03-22T04:14:44.872Z,159703.50
2018-03-22T04:17:12.539Z,159669.05
2018-03-22T04:19:40.175Z,159724.98
2018-03-22T04:22:07.767Z,159700.25
2018-03-22T04:24:35.470Z,159699.61
2018-03-22T04:27:03.134Z,159691.83
2018-03-22T04:29:30.725Z,159676.19
2018-03-22T04:31:58.602Z,159713.27
2018-03-22T04:34:26.259Z,159702.84
2018-03-22T04:36:53.947Z,159691.14
2018-03-22T04:39:21.830Z,159678.78
2018-03-22T04:41:49.494Z,159754.95
2018-03-22T04:44:17.280Z,159715.22
2018-03-22T04:46:44.925Z,159723.03
2018-03-22T04:49:12.495Z,159723.69
2018-03-22T04:51:40.192Z,159737.34
2018-03-22T04:54:07.917Z,159724.34
2018-03-22T04:56:35.658Z,159743.87
2018-03-22T04:59:03.306Z,159736.06
2018-03-22T05:01:31.008Z,159814.84
2018-03-22T05:03:58.682Z,159747.78
2018-03-22T05:06:26.401Z,159711.97
2018-03-22T05:08:54.140Z,159730.87
2018-03-22T05:11:21.810Z,159715.22
2018-03-22T05:13:49.593Z,159733.47
2018-03-22T05:16:17.260Z,159721.75
2018-03-22T05:18:44.925Z,159722.39
2018-03-22T05:21:12.612Z,159797.88
2018-03-22T05:23:40.279Z,159767.97
2018-03-22T05:26:08.033Z,159741.28
2018-03-22T05:28:35.739Z,159718.50
2018-03-22T05:31:03.325Z,159733.47
2018-03-22T05:33:30.980Z,159719.80
2018-03-22T05:35:58.551Z,159708.08
2018-03-22T05:38:26.348Z,159730.22
2018-03-22T05:40:54.121Z,159745.17
2018-03-22T05:43:21.775Z,159725.64
2018-03-22T05:45:49.473Z,159724.98
2018-03-22T05:48:17.256Z,159753.02
2018-03-22T05:50:45.034Z,159747.78
2018-03-22T05:53:13.525Z,159749.72
2018-03-22T05:55:41.305Z,159734.11
2018-03-22T05:58:09.081Z,159750.38
2018-03-22T06:00:36.745Z,159725.64
2018-03-22T06:03:04.532Z,159762.73
2018-03-22T06:05:32.317Z,159736.06
2018-03-22T06:07:59.979Z,159751.02
2018-03-22T06:10:27.659Z,159763.38
2018-03-22T06:12:55.245Z,159812.19
2018-03-22T06:15:22.982Z,159801.83
2018-03-22T06:17:50.581Z,159788.81
2018-03-22T06:20:18.258Z,159825.91
2018-03-22T06:22:45.987Z,159803.77
2018-03-22T06:25:13.610Z,159777.73
2018-03-22T06:27:41.278Z,159837.62
2018-03-22T06:30:09.059Z,159825.27
2018-03-22T06:32:36.680Z,159816.14
2018-03-22T06:35:04.411Z,159845.41
2018-03-22T06:37:32.162Z,159806.36
2018-03-22T06:39:59.976Z,159797.88
2018-03-22T06:42:27.568Z,159812.19
2018-03-22T06:44:55.429Z,159838.92
2018-03-22T06:47:23.093Z,159801.17
2018-03-22T06:49:50.879Z,159798.53
2018-03-22T06:52:18.507Z,159810.25
2018-03-22T06:54:47.158Z,159813.55
2018-03-22T06:57:14.833Z,159829.16
2018-03-22T06:59:42.610Z,159833.05
2018-03-22T07:02:10.325Z,159845.41
2018-03-22T07:04:38.051Z,159861.03
2018-03-22T07:07:05.722Z,159864.97
2018-03-22T07:09:33.305Z,159876.69
2018-03-22T07:12:01.093Z,159907.25
2018-03-22T07:14:28.866Z,159899.48
2018-03-22T07:16:56.636Z,159871.44
2018-03-22T07:19:24.208Z,159877.33
2018-03-22T07:21:51.888Z,159891.00
2018-03-22T07:24:19.668Z,159913.80
2018-03-22T07:26:47.347Z,159904.02
2018-03-22T07:29:14.993Z,159918.34
2018-03-22T07:31:42.596Z,159928.11
2018-03-22T07:34:10.179Z,159960.03
2018-03-22T07:36:37.950Z,159984.78
2018-03-22T07:39:05.720Z,159982.84
2018-03-22T07:41:33.465Z,160003.66
2018-03-22T07:44:06.818Z,159963.94
2018-03-22T07:46:34.590Z,159973.72
2018-03-22T07:49:02.347Z,160015.38
2018-03-22T07:51:30.025Z,160012.13
2018-03-22T07:53:58.027Z,159998.45
2018-03-22T07:56:25.762Z,159989.33
2018-03-22T07:58:53.472Z,159983.48
2018-03-22T08:01:21.052Z,160008.89
2018-03-22T08:03:48.633Z,160012.78
2018-03-22T08:06:16.294Z,159999.75
2018-03-22T08:08:43.975Z,160006.94
2018-03-22T08:11:11.620Z,160042.72
2018-03-22T08:13:39.324Z,160024.50
2018-03-22T08:16:06.999Z,160066.83
2018-03-22T08:18:34.645Z,160049.25
2018-03-22T08:21:02.458Z,160059.03
2018-03-22T08:23:30.076Z,160077.25
2018-03-22T08:25:58.009Z,160072.06
2018-03-22T08:28:25.788Z,160114.38
2018-03-22T08:30:53.517Z,160107.91
2018-03-22T08:33:21.348Z,160119.62
2018-03-22T08:35:49.224Z,160130.70
2018-03-22T08:38:16.835Z,160119.62
2018-03-22T08:40:44.448Z,160145.03
2018-03-22T08:43:12.066Z,160146.97
2018-03-22T08:45:39.719Z,160146.97
2018-03-22T08:48:07.300Z,160150.22
2018-03-22T08:50:34.961Z,160184.77
2018-03-22T08:53:02.634Z,160182.17
2018-03-22T08:55:30.313Z,160191.95
2018-03-22T08:57:57.981Z,160178.28
2018-03-22T09:00:25.654Z,160262.34
2018-03-22T09:02:53.451Z,160219.97
2018-03-22T09:05:21.109Z,160252.56
2018-03-22T09:07:48.904Z,160259.70
2018-03-22T09:10:16.728Z,160302.09
2018-03-22T09:12:44.444Z,160300.80
2018-03-22T09:15:12.238Z,160321.63
2018-03-22T09:17:40.022Z,160301.45
2018-03-22T09:20:07.649Z,160302.09
2018-03-22T09:22:35.355Z,160328.17
2018-03-22T09:25:03.037Z,160364.03
2018-03-22T09:27:30.821Z,160336.66
2018-03-22T09:29:58.698Z,160362.73
2018-03-22T09:32:26.291Z,160375.81
2018-03-22T09:34:53.960Z,160423.42
2018-03-22T09:37:21.760Z,160466.44
2018-03-22T09:39:49.330Z,160541.48
2018-03-22T09:42:16.976Z,160601.45
2018-03-22T09:44:44.618Z,160623.64
2018-03-22T09:47:12.277Z,160569.52
2018-03-22T09:49:40.105Z,160597.56
2018-03-22T09:52:07.883Z,160504.95
2018-03-22T09:54:35.508Z,160583.86
2018-03-22T09:57:03.375Z,160555.83
2018-03-22T09:59:31.103Z,160718.92
2018-03-22T10:01:58.787Z,160661.48
2018-03-22T10:04:26.518Z,160690.22
2018-03-22T10:06:54.107Z,160634.73
2018-03-22T10:09:21.919Z,160569.52
2018-03-22T10:11:49.555Z,160543.44
2018-03-22T10:14:17.141Z,160529.09
2018-03-22T10:16:44.941Z,160553.22
2018-03-22T10:19:12.607Z,160591.06
2018-03-22T10:21:40.332Z,160578.66
2018-03-22T10:24:08.074Z,160631.48
2018-03-22T10:26:35.789Z,160611.91
2018-03-22T10:29:03.515Z,160720.22
2018-03-22T10:31:31.193Z,160820.08
2018-03-22T10:33:58.979Z,160760.72
2018-03-22T10:36:26.829Z,160823.38
2018-03-22T10:38:54.462Z,160863.19
2018-03-22T10:41:22.212Z,160769.81
2018-03-22T10:43:49.800Z,160867.08
2018-03-22T10:46:17.454Z,160837.08
2018-03-22T10:48:45.132Z,160830.53
2018-03-22T10:51:12.808Z,160863.19
2018-03-22T10:53:40.460Z,160910.84
2018-03-22T10:56:08.151Z,160906.95
2018-03-22T10:58:35.729Z,160914.75
2018-03-22T11:01:09.150Z,160835.78
2018-03-22T11:03:42.446Z,160867.73
2018-03-22T11:06:10.141Z,160889.30
2018-03-22T11:08:37.792Z,160953.97
2018-03-22T11:11:05.583Z,160842.92
2018-03-22T11:13:33.247Z,160808.37
2018-03-22T11:16:01.028Z,160828.58
2018-03-22T11:18:28.626Z,160863.19
2018-03-22T11:20:56.270Z,160799.88
2018-03-22T11:23:23.943Z,160895.84
2018-03-22T11:25:51.688Z,160908.25
2018-03-22T11:28:19.342Z,160963.72
2018-03-22T11:30:47.084Z,160819.42
2018-03-22T11:33:14.663Z,160820.08
2018-03-22T11:35:42.437Z,160777.02
2018-03-22T11:38:10.222Z,160783.52
2018-03-22T11:40:37.893Z,160775.72
2018-03-22T11:43:05.706Z,160784.88
2018-03-22T11:45:33.285Z,160812.28
2018-03-22T11:48:01.027Z,160812.28
2018-03-22T11:50:28.690Z,160773.77
2018-03-22T11:52:56.419Z,160818.13
2018-03-22T11:55:24.336Z,160817.47
2018-03-22T11:57:52.079Z,160893.89
2018-03-22T12:00:19.680Z,160782.88
2018-03-22T12:02:47.377Z,160807.67
2018-03-22T12:05:15.011Z,160784.88
2018-03-22T12:07:42.673Z,160863.84
2018-03-22T12:10:10.359Z,160795.97
2018-03-22T12:12:38.081Z,160797.28
2018-03-22T12:15:05.864Z,160813.58
2018-03-22T12:17:33.535Z,160838.38
2018-03-22T12:20:01.140Z,160815.53
2018-03-22T12:22:28.848Z,160800.52
2018-03-22T12:24:56.461Z,160772.47
2018-03-22T12:27:24.132Z,160917.34
2018-03-22T12:29:51.808Z,160899.75
2018-03-22T12:32:19.599Z,160927.16
2018-03-22T12:34:47.203Z,160867.73
2018-03-22T12:37:14.931Z,160929.11
2018-03-22T12:39:42.603Z,160865.13
2018-03-22T12:42:10.185Z,160883.44
2018-03-22T12:44:37.830Z,160875.59
2018-03-22T12:47:05.435Z,160889.94
2018-03-22T12:49:33.111Z,160898.44
2018-03-22T12:52:00.752Z,160986.59
2018-03-22T12:54:28.334Z,160825.97
2018-03-22T12:56:55.977Z,160904.30
2018-03-22T12:59:23.607Z,160852.08
2018-03-22T13:01:51.283Z,160896.50
2018-03-22T13:04:19.027Z,160873.63
2018-03-22T13:06:46.629Z,160935.66
2018-03-22T13:09:14.300Z,160876.23
2018-03-22T13:11:41.878Z,160942.22
2018-03-22T13:14:09.549Z,160906.95
2018-03-22T13:16:37.444Z,160901.70
2018-03-22T13:19:05.104Z,160785.52
2018-03-22T13:21:32.901Z,160754.81
2018-03-22T13:24:00.540Z,160825.33
2018-03-22T13:26:28.347Z,160873.63
2018-03-22T13:28:56.129Z,160955.92
2018-03-22T13:31:23.774Z,160884.09
2018-03-22T13:33:51.576Z,160905.66
2018-03-22T13:36:19.167Z,160963.08
2018-03-22T13:38:47.117Z,160916.06
2018-03-22T13:41:14.812Z,160946.12
2018-03-22T13:43:42.465Z,160886.03
2018-03-22T13:46:10.159Z,160951.97
2018-03-22T13:48:37.823Z,160950.02
2018-03-22T13:51:05.564Z,160899.75
2018-03-22T13:53:33.179Z,160837.08
2018-03-22T13:56:00.805Z,160945.47
2018-03-22T13:58:28.437Z,160906.95
2018-03-22T14:00:56.222Z,160872.98
2018-03-22T14:03:24.078Z,160891.25
2018-03-22T14:05:51.755Z,160853.38
2018-03-22T14:08:19.312Z,160876.23
2018-03-22T14:10:47.044Z,160929.81
2018-03-22T14:13:14.678Z,160911.50
2018-03-22T14:15:42.255Z,160880.14
2018-03-22T14:18:09.872Z,160816.81
2018-03-22T14:20:37.437Z,160829.22
2018-03-22T14:23:05.255Z,160842.28
2018-03-22T14:25:32.867Z,160840.97
2018-03-22T14:28:00.458Z,160820.08
2018-03-22T14:30:28.100Z,160878.84
2018-03-22T14:32:55.785Z,160788.13
2018-03-22T14:35:23.567Z,160767.22
2018-03-22T14:37:51.330Z,160762.67
2018-03-22T14:40:19.130Z,160762.67
2018-03-22T14:42:46.716Z,160790.72
2018-03-22T14:45:14.579Z,160749.63
2018-03-22T14:47:42.147Z,160790.72
2018-03-22T14:50:09.727Z,160731.97
2018-03-22T14:52:37.387Z,160783.52
2018-03-22T14:55:05.195Z,160789.42
2018-03-22T14:57:32.780Z,160764.63
2018-03-22T15:00:00.417Z,160750.92
2018-03-22T15:02:28.103Z,160766.56
2018-03-22T15:04:55.721Z,160825.33
2018-03-22T15:07:23.377Z,160763.97
2018-03-22T15:09:51.126Z,160784.88
2018-03-22T15:12:18.720Z,160805.72
2018-03-22T15:14:46.889Z,160763.97
2018-03-22T15:17:14.665Z,160815.53
2018-03-22T15:19:42.445Z,160800.52
2018-03-22T15:22:10.117Z,160756.77
2018-03-22T15:24:37.891Z,160788.77
2018-03-22T15:27:05.476Z,160772.47
2018-03-22T15:29:33.109Z,160733.27
2018-03-22T15:32:00.752Z,160748.31
2018-03-22T15:34:28.332Z,160733.92
2018-03-22T15:36:56.159Z,160728.06
2018-03-22T15:39:23.950Z,160745.67
2018-03-22T15:41:51.520Z,160758.72
2018-03-22T15:44:19.195Z,160807.03
2018-03-22T15:46:46.851Z,160776.38
2018-03-22T15:49:14.658Z,160777.67
2018-03-22T15:51:42.317Z,160785.52
2018-03-22T15:54:10.107Z,160771.13
2018-03-22T15:56:37.682Z,160735.92
2018-03-22T15:59:05.561Z,160732.62
2018-03-22T16:01:33.132Z,160737.22
2018-03-22T16:04:00.800Z,160780.27
2018-03-22T16:06:28.573Z,160730.67
2018-03-22T16:08:56.362Z,160741.13
2018-03-22T16:11:24.039Z,160746.31
2018-03-22T16:13:51.710Z,160703.92
2018-03-22T16:16:19.360Z,160732.62
2018-03-22T16:18:47.167Z,160715.03
2018-03-22T16:21:14.773Z,160702.63
2018-03-22T16:23:42.407Z,160666.08
2018-03-22T16:26:10.196Z,160668.69
2018-03-22T16:28:37.873Z,160707.83
2018-03-22T16:31:05.533Z,160655.63
2018-03-22T16:33:33.223Z,160679.78
2018-03-22T16:36:01.012Z,160693.47
2018-03-22T16:38:28.879Z,160707.17
2018-03-22T16:40:56.454Z,160665.44
2018-03-22T16:43:24.128Z,160698.72
2018-03-22T16:45:51.757Z,160694.13
2018-03-22T16:48:19.478Z,160689.58
2018-03-22T16:50:47.258Z,160713.72
2018-03-22T16:53:15.034Z,160623.64
2018-03-22T16:55:44.056Z,160657.58
2018-03-22T16:58:11.664Z,160656.28
2018-03-22T17:00:39.383Z,160628.89
2018-03-22T17:03:07.165Z,160628.25
2018-03-22T17:05:34.740Z,160624.30
2018-03-22T17:08:02.624Z,160638.03
2018-03-22T17:10:30.508Z,160647.78
2018-03-22T17:12:58.086Z,160659.53
2018-03-22T17:15:25.744Z,160623.64
2018-03-22T17:17:53.414Z,160623.64
2018-03-22T17:20:21.067Z,160569.52
2018-03-22T17:22:49.001Z,160596.25
2018-03-22T17:25:16.751Z,160593.66
2018-03-22T17:27:44.325Z,160632.78
2018-03-22T17:30:11.949Z,160579.97
2018-03-22T17:32:39.604Z,160594.95
2018-03-22T17:35:07.258Z,160579.97
2018-03-22T17:37:34.933Z,160544.73
2018-03-22T17:40:02.817Z,160593.00
2018-03-22T17:42:30.594Z,160591.06
2018-03-22T17:44:58.208Z,160593.66
2018-03-22T17:47:25.828Z,160560.38
2018-03-22T17:49:53.525Z,160570.81
2018-03-22T17:52:21.401Z,160549.28
2018-03-22T17:54:49.125Z,160584.52
2018-03-22T17:57:16.952Z,160573.41
2018-03-22T17:59:44.625Z,160572.11
2018-03-22T18:02:12.349Z,160538.84
2018-03-22T18:04:40.596Z,160529.09
2018-03-22T18:07:08.375Z,160519.30
2018-03-22T18:09:36.099Z,160557.78
2018-03-22T18:12:03.891Z,160517.34
2018-03-22T18:14:31.706Z,160511.45
2018-03-22T18:16:59.382Z,160501.00
2018-03-22T18:19:27.268Z,160501.66
2018-03-22T18:21:55.144Z,160546.67
2018-03-22T18:24:22.922Z,160486.67
2018-03-22T18:26:50.668Z,160503.61
2018-03-22T18:29:18.478Z,160510.80
2018-03-22T18:31:46.198Z,160486.02
2018-03-22T18:34:13.825Z,160510.80
2018-03-22T18:36:42.325Z,160465.14
2018-03-22T18:39:10.204Z,160472.33
2018-03-22T18:41:37.944Z,160456.69
2018-03-22T18:44:05.706Z,160452.09
2018-03-22T18:46:33.848Z,160467.73
2018-03-22T18:49:01.588Z,160420.83
2018-03-22T18:51:29.292Z,160436.47
2018-03-22T18:53:56.971Z,160471.69
2018-03-22T18:56:24.750Z,160426.02
2018-03-22T18:58:52.480Z,160450.16
2018-03-22T19:01:20.309Z,160442.30
2018-03-22T19:03:47.987Z,160437.75
2018-03-22T19:06:15.759Z,160412.33
2018-03-22T19:08:43.427Z,160430.56
2018-03-22T19:11:11.112Z,160435.16
2018-03-22T19:13:38.857Z,160416.88
2018-03-22T19:16:06.978Z,160426.02
2018-03-22T19:18:34.720Z,160399.94
2018-03-22T19:21:02.532Z,160377.77
2018-03-22T19:23:30.204Z,160405.14
2018-03-22T19:25:58.089Z,160381.00
2018-03-22T19:28:26.330Z,160401.25
2018-03-22T19:30:54.159Z,160381.66
2018-03-22T19:33:21.888Z,160372.56
2018-03-22T19:35:49.714Z,160401.25
2018-03-22T19:38:17.495Z,160383.66
2018-03-22T19:40:45.342Z,160373.22
2018-03-22T19:43:13.048Z,160389.50
2018-03-22T19:45:40.711Z,160385.61
2018-03-22T19:48:08.501Z,160367.33
2018-03-22T19:50:36.269Z,160388.86
2018-03-22T19:53:03.943Z,160389.50
2018-03-22T19:55:31.731Z,160368.63
2018-03-22T19:57:59.336Z,160370.58
2018-03-22T20:00:27.295Z,160378.41
2018-03-22T20:02:55.065Z,160377.13
2018-03-22T20:05:22.846Z,160360.78
2018-03-22T20:07:50.620Z,160375.81
2018-03-22T20:10:18.397Z,160410.38
2018-03-22T20:12:46.275Z,160363.38
2018-03-22T20:15:14.060Z,160347.09
2018-03-22T20:17:41.785Z,160331.42
2018-03-22T20:20:09.814Z,160343.81
2018-03-22T20:22:37.656Z,160337.31
2018-03-22T20:25:05.478Z,160319.03
2018-03-22T20:27:33.248Z,160329.47
2018-03-22T20:30:01.034Z,160307.30
2018-03-22T20:32:28.664Z,160287.13
2018-03-22T20:34:56.426Z,160297.50
2018-03-22T20:37:24.277Z,160285.13
2018-03-22T20:39:52.040Z,160294.91
2018-03-22T20:42:19.921Z,160266.25
2018-03-22T20:44:49.134Z,160265.59
2018-03-22T20:47:16.912Z,160277.33
2018-03-22T20:49:44.692Z,160264.30
2018-03-22T20:52:12.390Z,160287.77
2018-03-22T20:54:40.144Z,160270.14
2018-03-22T20:57:07.905Z,160260.34
2018-03-22T20:59:35.668Z,160259.70
2018-03-22T21:02:03.477Z,160272.09
2018-03-22T21:04:31.155Z,160264.95
2018-03-22T21:06:58.990Z,160268.19
2018-03-22T21:09:26.640Z,160253.22
2018-03-22T21:11:54.271Z,160289.06
2018-03-22T21:14:22.015Z,160287.77
2018-03-22T21:16:49.735Z,160247.97
2018-03-22T21:19:17.496Z,160253.88
2018-03-22T21:21:45.292Z,160251.91
2018-03-22T21:24:13.070Z,160262.34
2018-03-22T21:26:40.662Z,160258.41
2018-03-22T21:29:08.535Z,160241.48
2018-03-22T21:31:36.202Z,160234.30
2018-03-22T21:34:03.977Z,160225.20
2018-03-22T21:36:31.651Z,160223.86
2018-03-22T21:38:59.437Z,160207.58
2018-03-22T21:41:27.373Z,160239.53
2018-03-22T21:44:07.067Z,160233.00
2018-03-22T21:46:35.257Z,160223.86
2018-03-22T21:49:02.932Z,160223.86
2018-03-22T21:51:30.736Z,160200.39
2018-03-22T21:53:58.483Z,160219.97
2018-03-22T21:56:26.155Z,160191.95
2018-03-22T21:58:53.945Z,160208.87
2018-03-22T22:01:21.723Z,160188.70
2018-03-22T22:03:49.391Z,160201.73
2018-03-22T22:06:17.175Z,160191.31
2018-03-22T22:08:44.955Z,160188.02
2018-03-22T22:11:12.730Z,160187.36
2018-03-22T22:13:40.459Z,160192.61
2018-03-22T22:16:08.291Z,160178.28
2018-03-22T22:18:36.015Z,160169.14
2018-03-22T22:21:03.844Z,160166.55
2018-03-22T22:23:31.467Z,160153.52
2018-03-22T22:25:59.268Z,160144.38
2018-03-22T22:28:27.079Z,160148.92
2018-03-22T22:30:54.851Z,160137.19
2018-03-22T22:33:22.630Z,160150.87
2018-03-22T22:35:50.308Z,160160.66
2018-03-22T22:38:18.187Z,160152.17
2018-03-22T22:40:45.778Z,160169.78
2018-03-22T22:43:13.438Z,160154.81
2018-03-22T22:45:41.626Z,160156.11
2018-03-22T22:48:09.298Z,160135.91
2018-03-22T22:50:37.077Z,160133.30
2018-03-22T22:53:04.858Z,160118.33
2018-03-22T22:55:32.616Z,160117.67
2018-03-22T22:58:00.412Z,160119.62
2018-03-22T23:00:28.085Z,160111.78
2018-03-22T23:02:55.815Z,160117.03
2018-03-22T23:05:23.426Z,160119.62
2018-03-22T23:07:51.677Z,160094.88
2018-03-22T23:10:19.403Z,160105.94
2018-03-22T23:12:47.079Z,160098.77
2018-03-22T23:15:14.794Z,160090.28
2018-03-22T23:17:42.489Z,160072.06
2018-03-22T23:20:10.314Z,160060.34
2018-03-22T23:22:37.982Z,160032.34
2018-03-22T23:25:05.652Z,160030.34
2018-03-22T23:27:33.442Z,160033.63
2018-03-22T23:30:01.177Z,160032.98
2018-03-22T23:32:28.995Z,160030.34
2018-03-22T23:34:56.701Z,160008.89
2018-03-22T23:37:24.859Z,160009.53
2018-03-22T23:39:52.530Z,160003.00
2018-03-22T23:42:20.185Z,159997.81
2018-03-22T23:44:48.413Z,159991.28
2018-03-22T23:47:16.177Z,159995.22
2018-03-22T23:49:43.900Z,160004.94
2018-03-22T23:52:11.623Z,160003.66
2018-03-22T23:54:39.360Z,160012.13
2018-03-22T23:57:07.076Z,160023.20
2018-03-22T23:59:34.818Z,160002.34
